sensor_id;sensor_type;location;lat;lon;timestamp;temperature;humidity
44823;DHT22;51097;51.984;5.650;2023-02-26T00:00:16;3.20;99.90
44823;DHT22;51097;51.984;5.650;2023-02-26T00:02:45;3.20;99.90
44823;DHT22;51097;51.984;5.650;2023-02-26T00:05:13;3.30;99.90
44823;DHT22;51097;51.984;5.650;2023-02-26T00:07:39;3.30;99.90
44823;DHT22;51097;51.984;5.650;2023-02-26T00:10:07;3.40;99.90
44823;DHT22;51097;51.984;5.650;2023-02-26T00:12:33;3.40;99.90
44823;DHT22;51097;51.984;5.650;2023-02-26T00:14:59;3.50;99.90
44823;DHT22;51097;51.984;5.650;2023-02-26T00:19:53;3.40;99.90
44823;DHT22;51097;51.984;5.650;2023-02-26T00:22:19;3.40;99.90
44823;DHT22;51097;51.984;5.650;2023-02-26T00:24:45;3.40;99.90
44823;DHT22;51097;51.984;5.650;2023-02-26T00:27:11;3.40;99.90
44823;DHT22;51097;51.984;5.650;2023-02-26T00:29:37;3.30;99.90
44823;DHT22;51097;51.984;5.650;2023-02-26T00:32:03;3.30;99.90
44823;DHT22;51097;51.984;5.650;2023-02-26T00:34:29;3.30;99.90
44823;DHT22;51097;51.984;5.650;2023-02-26T00:42:19;3.20;99.90
44823;DHT22;51097;51.984;5.650;2023-02-26T00:44:44;3.30;99.90
44823;DHT22;51097;51.984;5.650;2023-02-26T00:47:24;3.20;99.90
44823;DHT22;51097;51.984;5.650;2023-02-26T00:52:49;3.20;99.90
44823;DHT22;51097;51.984;5.650;2023-02-26T00:55:17;3.20;99.90
44823;DHT22;51097;51.984;5.650;2023-02-26T00:57:44;3.10;99.90
44823;DHT22;51097;51.984;5.650;2023-02-26T01:00:10;3.10;99.90
44823;DHT22;51097;51.984;5.650;2023-02-26T01:02:37;3.10;99.90
44823;DHT22;51097;51.984;5.650;2023-02-26T01:05:04;3.10;99.90
44823;DHT22;51097;51.984;5.650;2023-02-26T01:10:21;2.90;99.90
44823;DHT22;51097;51.984;5.650;2023-02-26T01:12:46;3.00;99.90
44823;DHT22;51097;51.984;5.650;2023-02-26T01:15:13;2.90;99.90
44823;DHT22;51097;51.984;5.650;2023-02-26T01:20:16;2.80;99.90
44823;DHT22;51097;51.984;5.650;2023-02-26T01:28:05;2.80;99.90
44823;DHT22;51097;51.984;5.650;2023-02-26T01:30:31;2.90;99.90
44823;DHT22;51097;51.984;5.650;2023-02-26T01:35:42;2.80;99.90
44823;DHT22;51097;51.984;5.650;2023-02-26T01:44:09;2.70;99.90
44823;DHT22;51097;51.984;5.650;2023-02-26T01:49:14;2.60;99.90
44823;DHT22;51097;51.984;5.650;2023-02-26T01:51:47;2.60;99.90
44823;DHT22;51097;51.984;5.650;2023-02-26T01:54:15;2.60;99.90
44823;DHT22;51097;51.984;5.650;2023-02-26T01:56:42;2.60;99.90
44823;DHT22;51097;51.984;5.650;2023-02-26T01:59:11;2.50;99.90
44823;DHT22;51097;51.984;5.650;2023-02-26T02:01:39;2.50;99.90
44823;DHT22;51097;51.984;5.650;2023-02-26T02:04:09;2.50;99.90
44823;DHT22;51097;51.984;5.650;2023-02-26T02:06:34;2.40;99.90
44823;DHT22;51097;51.984;5.650;2023-02-26T02:09:04;2.50;99.90
44823;DHT22;51097;51.984;5.650;2023-02-26T02:11:30;2.40;99.90
44823;DHT22;51097;51.984;5.650;2023-02-26T02:14:30;2.40;99.90
44823;DHT22;51097;51.984;5.650;2023-02-26T02:17:40;2.40;99.90
44823;DHT22;51097;51.984;5.650;2023-02-26T02:23:14;2.40;99.90
44823;DHT22;51097;51.984;5.650;2023-02-26T02:31:34;2.40;99.90
44823;DHT22;51097;51.984;5.650;2023-02-26T02:34:59;2.40;99.90
44823;DHT22;51097;51.984;5.650;2023-02-26T02:37:03;2.30;99.90
44823;DHT22;51097;51.984;5.650;2023-02-26T02:45:06;2.30;99.90
44823;DHT22;51097;51.984;5.650;2023-02-26T02:47:37;2.30;99.90
44823;DHT22;51097;51.984;5.650;2023-02-26T02:50:12;2.30;99.90
44823;DHT22;51097;51.984;5.650;2023-02-26T02:52:49;2.30;99.90
44823;DHT22;51097;51.984;5.650;2023-02-26T02:55:28;2.30;99.90
44823;DHT22;51097;51.984;5.650;2023-02-26T02:58:16;2.30;99.90
44823;DHT22;51097;51.984;5.650;2023-02-26T03:00:48;2.30;99.90
44823;DHT22;51097;51.984;5.650;2023-02-26T03:03:19;2.30;99.90
44823;DHT22;51097;51.984;5.650;2023-02-26T03:05:46;2.30;99.90
44823;DHT22;51097;51.984;5.650;2023-02-26T03:08:15;2.30;99.90
44823;DHT22;51097;51.984;5.650;2023-02-26T03:10:41;2.40;99.90
44823;DHT22;51097;51.984;5.650;2023-02-26T03:13:15;2.30;99.90
44823;DHT22;51097;51.984;5.650;2023-02-26T03:23:57;2.30;99.90
44823;DHT22;51097;51.984;5.650;2023-02-26T03:26:33;2.30;99.90
44823;DHT22;51097;51.984;5.650;2023-02-26T03:29:23;2.30;99.90
44823;DHT22;51097;51.984;5.650;2023-02-26T03:31:59;2.40;99.90
44823;DHT22;51097;51.984;5.650;2023-02-26T03:34:45;2.20;99.90
44823;DHT22;51097;51.984;5.650;2023-02-26T03:37:21;2.30;99.90
44823;DHT22;51097;51.984;5.650;2023-02-26T03:39:51;2.30;99.90
44823;DHT22;51097;51.984;5.650;2023-02-26T03:45:25;2.20;99.90
44823;DHT22;51097;51.984;5.650;2023-02-26T03:47:53;2.20;99.90
44823;DHT22;51097;51.984;5.650;2023-02-26T03:50:33;2.10;99.90
44823;DHT22;51097;51.984;5.650;2023-02-26T03:53:00;2.10;99.90
44823;DHT22;51097;51.984;5.650;2023-02-26T03:55:32;2.10;99.90
44823;DHT22;51097;51.984;5.650;2023-02-26T03:57:59;2.00;99.90
44823;DHT22;51097;51.984;5.650;2023-02-26T04:00:26;2.00;99.90
44823;DHT22;51097;51.984;5.650;2023-02-26T04:03:00;2.00;99.90
44823;DHT22;51097;51.984;5.650;2023-02-26T04:05:34;2.00;99.90
44823;DHT22;51097;51.984;5.650;2023-02-26T04:08:01;2.00;99.90
44823;DHT22;51097;51.984;5.650;2023-02-26T04:10:43;1.90;99.90
44823;DHT22;51097;51.984;5.650;2023-02-26T04:13:09;1.90;99.90
44823;DHT22;51097;51.984;5.650;2023-02-26T04:15:35;2.00;99.90
44823;DHT22;51097;51.984;5.650;2023-02-26T04:18:01;1.90;99.90
44823;DHT22;51097;51.984;5.650;2023-02-26T04:20:28;1.90;99.90
44823;DHT22;51097;51.984;5.650;2023-02-26T04:22:53;1.80;99.90
44823;DHT22;51097;51.984;5.650;2023-02-26T04:25:19;1.90;99.90
44823;DHT22;51097;51.984;5.650;2023-02-26T04:27:44;1.80;99.90
44823;DHT22;51097;51.984;5.650;2023-02-26T04:30:10;1.80;99.90
44823;DHT22;51097;51.984;5.650;2023-02-26T04:32:36;1.80;99.90
44823;DHT22;51097;51.984;5.650;2023-02-26T04:35:02;1.70;99.90
44823;DHT22;51097;51.984;5.650;2023-02-26T04:37:27;1.70;99.90
44823;DHT22;51097;51.984;5.650;2023-02-26T04:39:53;1.70;99.90
44823;DHT22;51097;51.984;5.650;2023-02-26T04:42:18;1.70;99.90
44823;DHT22;51097;51.984;5.650;2023-02-26T04:44:44;1.60;99.90
44823;DHT22;51097;51.984;5.650;2023-02-26T04:47:09;1.60;99.90
44823;DHT22;51097;51.984;5.650;2023-02-26T04:49:35;1.60;99.90
44823;DHT22;51097;51.984;5.650;2023-02-26T04:52:00;1.60;99.90
44823;DHT22;51097;51.984;5.650;2023-02-26T04:54:26;1.60;99.90
44823;DHT22;51097;51.984;5.650;2023-02-26T04:56:51;1.50;99.90
44823;DHT22;51097;51.984;5.650;2023-02-26T04:59:17;1.50;99.90
44823;DHT22;51097;51.984;5.650;2023-02-26T05:01:43;1.50;99.90
44823;DHT22;51097;51.984;5.650;2023-02-26T05:04:08;1.40;99.90
44823;DHT22;51097;51.984;5.650;2023-02-26T05:06:34;1.40;99.90
44823;DHT22;51097;51.984;5.650;2023-02-26T05:08:59;1.40;99.90
44823;DHT22;51097;51.984;5.650;2023-02-26T05:11:25;1.40;99.90
44823;DHT22;51097;51.984;5.650;2023-02-26T05:13:50;1.40;99.90
44823;DHT22;51097;51.984;5.650;2023-02-26T05:16:16;1.30;99.90
44823;DHT22;51097;51.984;5.650;2023-02-26T05:18:42;1.30;99.90
44823;DHT22;51097;51.984;5.650;2023-02-26T05:21:07;1.20;99.90
44823;DHT22;51097;51.984;5.650;2023-02-26T05:23:33;1.20;99.90
44823;DHT22;51097;51.984;5.650;2023-02-26T05:25:59;1.10;99.90
44823;DHT22;51097;51.984;5.650;2023-02-26T05:28:25;1.20;99.90
44823;DHT22;51097;51.984;5.650;2023-02-26T05:30:51;1.20;99.90
44823;DHT22;51097;51.984;5.650;2023-02-26T05:33:18;1.10;99.90
44823;DHT22;51097;51.984;5.650;2023-02-26T05:35:44;1.00;99.90
44823;DHT22;51097;51.984;5.650;2023-02-26T05:38:10;1.00;99.90
44823;DHT22;51097;51.984;5.650;2023-02-26T05:40:35;1.00;99.90
44823;DHT22;51097;51.984;5.650;2023-02-26T05:43:01;1.10;99.90
44823;DHT22;51097;51.984;5.650;2023-02-26T05:45:27;1.10;99.90
44823;DHT22;51097;51.984;5.650;2023-02-26T05:47:52;1.10;99.90
44823;DHT22;51097;51.984;5.650;2023-02-26T05:50:18;1.00;99.90
44823;DHT22;51097;51.984;5.650;2023-02-26T05:52:43;1.10;99.90
44823;DHT22;51097;51.984;5.650;2023-02-26T05:55:09;1.00;99.90
44823;DHT22;51097;51.984;5.650;2023-02-26T05:57:35;1.00;99.90
44823;DHT22;51097;51.984;5.650;2023-02-26T06:00:00;1.00;99.90
44823;DHT22;51097;51.984;5.650;2023-02-26T06:02:26;0.90;99.90
44823;DHT22;51097;51.984;5.650;2023-02-26T06:04:52;0.90;99.90
44823;DHT22;51097;51.984;5.650;2023-02-26T06:07:17;0.80;99.90
44823;DHT22;51097;51.984;5.650;2023-02-26T06:09:43;0.90;99.90
44823;DHT22;51097;51.984;5.650;2023-02-26T06:12:08;0.90;99.90
44823;DHT22;51097;51.984;5.650;2023-02-26T06:14:34;0.90;99.90
44823;DHT22;51097;51.984;5.650;2023-02-26T06:17:01;0.90;99.90
44823;DHT22;51097;51.984;5.650;2023-02-26T06:19:27;0.80;99.90
44823;DHT22;51097;51.984;5.650;2023-02-26T06:21:52;0.80;99.90
44823;DHT22;51097;51.984;5.650;2023-02-26T06:24:18;0.80;99.90
44823;DHT22;51097;51.984;5.650;2023-02-26T06:26:43;0.80;99.90
44823;DHT22;51097;51.984;5.650;2023-02-26T06:29:09;0.90;99.90
44823;DHT22;51097;51.984;5.650;2023-02-26T06:31:34;0.80;99.90
44823;DHT22;51097;51.984;5.650;2023-02-26T06:34:00;0.80;99.90
44823;DHT22;51097;51.984;5.650;2023-02-26T06:36:26;0.80;99.90
44823;DHT22;51097;51.984;5.650;2023-02-26T06:38:52;0.80;99.90
44823;DHT22;51097;51.984;5.650;2023-02-26T06:41:17;0.80;99.90
44823;DHT22;51097;51.984;5.650;2023-02-26T06:43:43;0.80;99.90
44823;DHT22;51097;51.984;5.650;2023-02-26T06:46:08;0.80;99.90
44823;DHT22;51097;51.984;5.650;2023-02-26T06:48:34;0.90;99.90
44823;DHT22;51097;51.984;5.650;2023-02-26T06:51:00;1.00;99.90
44823;DHT22;51097;51.984;5.650;2023-02-26T06:53:25;0.90;99.90
44823;DHT22;51097;51.984;5.650;2023-02-26T06:55:52;0.90;99.90
44823;DHT22;51097;51.984;5.650;2023-02-26T06:58:17;0.90;99.90
44823;DHT22;51097;51.984;5.650;2023-02-26T07:00:43;0.90;99.90
44823;DHT22;51097;51.984;5.650;2023-02-26T07:03:14;0.90;99.90
44823;DHT22;51097;51.984;5.650;2023-02-26T07:05:40;0.90;99.90
44823;DHT22;51097;51.984;5.650;2023-02-26T07:08:06;0.90;99.90
44823;DHT22;51097;51.984;5.650;2023-02-26T07:10:33;1.00;99.90
44823;DHT22;51097;51.984;5.650;2023-02-26T07:12:59;1.00;99.90
44823;DHT22;51097;51.984;5.650;2023-02-26T07:15:25;1.10;99.90
44823;DHT22;51097;51.984;5.650;2023-02-26T07:17:50;1.10;99.90
44823;DHT22;51097;51.984;5.650;2023-02-26T07:20:16;1.10;99.90
44823;DHT22;51097;51.984;5.650;2023-02-26T07:22:43;1.10;99.90
44823;DHT22;51097;51.984;5.650;2023-02-26T07:25:10;1.20;99.90
44823;DHT22;51097;51.984;5.650;2023-02-26T07:27:36;1.30;99.90
44823;DHT22;51097;51.984;5.650;2023-02-26T07:30:03;1.20;99.90
44823;DHT22;51097;51.984;5.650;2023-02-26T07:32:29;1.30;99.90
44823;DHT22;51097;51.984;5.650;2023-02-26T07:34:54;1.40;99.90
44823;DHT22;51097;51.984;5.650;2023-02-26T07:37:20;1.50;99.90
44823;DHT22;51097;51.984;5.650;2023-02-26T07:39:45;1.50;99.90
44823;DHT22;51097;51.984;5.650;2023-02-26T07:42:11;1.60;99.90
44823;DHT22;51097;51.984;5.650;2023-02-26T07:44:37;1.60;99.90
44823;DHT22;51097;51.984;5.650;2023-02-26T07:47:02;1.80;99.90
44823;DHT22;51097;51.984;5.650;2023-02-26T07:49:28;1.80;99.90
44823;DHT22;51097;51.984;5.650;2023-02-26T07:51:54;1.90;99.90
44823;DHT22;51097;51.984;5.650;2023-02-26T07:54:19;2.00;99.90
44823;DHT22;51097;51.984;5.650;2023-02-26T07:56:45;2.00;99.90
44823;DHT22;51097;51.984;5.650;2023-02-26T07:59:11;2.10;99.90
44823;DHT22;51097;51.984;5.650;2023-02-26T08:01:37;2.20;99.90
44823;DHT22;51097;51.984;5.650;2023-02-26T08:04:03;2.20;99.90
44823;DHT22;51097;51.984;5.650;2023-02-26T08:06:29;2.30;99.90
44823;DHT22;51097;51.984;5.650;2023-02-26T08:08:54;2.30;99.90
44823;DHT22;51097;51.984;5.650;2023-02-26T08:11:20;2.50;99.90
44823;DHT22;51097;51.984;5.650;2023-02-26T08:13:46;2.50;99.90
44823;DHT22;51097;51.984;5.650;2023-02-26T08:16:11;2.70;99.90
44823;DHT22;51097;51.984;5.650;2023-02-26T08:18:37;2.80;99.90
44823;DHT22;51097;51.984;5.650;2023-02-26T08:21:03;2.80;99.90
44823;DHT22;51097;51.984;5.650;2023-02-26T08:23:28;2.90;99.90
44823;DHT22;51097;51.984;5.650;2023-02-26T08:26:06;2.90;99.90
44823;DHT22;51097;51.984;5.650;2023-02-26T08:28:32;3.20;99.90
44823;DHT22;51097;51.984;5.650;2023-02-26T08:30:58;3.20;99.90
44823;DHT22;51097;51.984;5.650;2023-02-26T08:33:24;3.40;99.90
44823;DHT22;51097;51.984;5.650;2023-02-26T08:35:50;3.50;99.90
44823;DHT22;51097;51.984;5.650;2023-02-26T08:38:16;3.70;99.90
44823;DHT22;51097;51.984;5.650;2023-02-26T08:40:42;3.80;99.90
44823;DHT22;51097;51.984;5.650;2023-02-26T08:43:08;3.90;99.90
44823;DHT22;51097;51.984;5.650;2023-02-26T08:45:35;4.00;99.90
44823;DHT22;51097;51.984;5.650;2023-02-26T08:48:01;4.10;99.90
44823;DHT22;51097;51.984;5.650;2023-02-26T08:50:27;4.10;99.90
44823;DHT22;51097;51.984;5.650;2023-02-26T08:52:53;4.30;99.90
44823;DHT22;51097;51.984;5.650;2023-02-26T08:55:18;4.40;99.90
44823;DHT22;51097;51.984;5.650;2023-02-26T08:57:44;4.50;99.90
44823;DHT22;51097;51.984;5.650;2023-02-26T09:00:10;4.60;99.90
44823;DHT22;51097;51.984;5.650;2023-02-26T09:02:37;4.50;99.90
44823;DHT22;51097;51.984;5.650;2023-02-26T09:05:03;4.70;99.90
44823;DHT22;51097;51.984;5.650;2023-02-26T09:07:29;4.70;99.90
44823;DHT22;51097;51.984;5.650;2023-02-26T09:09:54;4.70;99.90
44823;DHT22;51097;51.984;5.650;2023-02-26T09:12:20;4.70;99.90
44823;DHT22;51097;51.984;5.650;2023-02-26T09:14:45;4.80;99.90
44823;DHT22;51097;51.984;5.650;2023-02-26T09:17:11;4.80;99.90
44823;DHT22;51097;51.984;5.650;2023-02-26T09:19:37;4.80;99.90
44823;DHT22;51097;51.984;5.650;2023-02-26T09:22:02;4.80;99.90
44823;DHT22;51097;51.984;5.650;2023-02-26T09:24:28;5.10;99.90
44823;DHT22;51097;51.984;5.650;2023-02-26T09:26:54;5.30;99.90
44823;DHT22;51097;51.984;5.650;2023-02-26T09:29:19;5.30;99.90
44823;DHT22;51097;51.984;5.650;2023-02-26T09:31:45;5.30;99.90
44823;DHT22;51097;51.984;5.650;2023-02-26T09:34:10;5.20;99.90
44823;DHT22;51097;51.984;5.650;2023-02-26T09:36:38;5.30;99.90
44823;DHT22;51097;51.984;5.650;2023-02-26T09:39:03;5.30;99.90
44823;DHT22;51097;51.984;5.650;2023-02-26T09:41:33;5.30;99.90
44823;DHT22;51097;51.984;5.650;2023-02-26T09:44:06;5.30;99.90
44823;DHT22;51097;51.984;5.650;2023-02-26T09:52:36;5.60;99.90
44823;DHT22;51097;51.984;5.650;2023-02-26T09:58:08;5.60;99.90
44823;DHT22;51097;51.984;5.650;2023-02-26T10:08:38;5.90;99.90
44823;DHT22;51097;51.984;5.650;2023-02-26T10:14:10;6.10;99.90
44823;DHT22;51097;51.984;5.650;2023-02-26T10:16:40;6.30;99.90
44823;DHT22;51097;51.984;5.650;2023-02-26T10:19:11;6.40;99.90
44823;DHT22;51097;51.984;5.650;2023-02-26T10:22:00;6.30;99.90
44823;DHT22;51097;51.984;5.650;2023-02-26T10:24:37;6.50;99.90
44823;DHT22;51097;51.984;5.650;2023-02-26T10:27:08;6.60;99.90
44823;DHT22;51097;51.984;5.650;2023-02-26T10:33:17;6.50;99.90
44823;DHT22;51097;51.984;5.650;2023-02-26T10:35:52;6.50;99.90
44823;DHT22;51097;51.984;5.650;2023-02-26T10:38:25;6.50;99.90
44823;DHT22;51097;51.984;5.650;2023-02-26T10:40:59;6.60;99.90
44823;DHT22;51097;51.984;5.650;2023-02-26T10:49:32;7.00;99.90
44823;DHT22;51097;51.984;5.650;2023-02-26T10:52:14;7.00;99.90
44823;DHT22;51097;51.984;5.650;2023-02-26T10:54:48;7.00;99.90
44823;DHT22;51097;51.984;5.650;2023-02-26T10:57:33;7.10;99.90
44823;DHT22;51097;51.984;5.650;2023-02-26T11:00:00;7.20;99.50
44823;DHT22;51097;51.984;5.650;2023-02-26T11:02:37;7.00;99.40
44823;DHT22;51097;51.984;5.650;2023-02-26T11:05:05;6.80;99.90
44823;DHT22;51097;51.984;5.650;2023-02-26T11:07:31;6.70;99.90
44823;DHT22;51097;51.984;5.650;2023-02-26T11:09:58;6.70;99.90
44823;DHT22;51097;51.984;5.650;2023-02-26T11:12:24;6.60;99.60
44823;DHT22;51097;51.984;5.650;2023-02-26T11:14:50;6.50;99.70
44823;DHT22;51097;51.984;5.650;2023-02-26T11:17:22;6.40;99.90
44823;DHT22;51097;51.984;5.650;2023-02-26T11:20:01;6.40;99.90
44823;DHT22;51097;51.984;5.650;2023-02-26T11:22:32;6.40;99.90
44823;DHT22;51097;51.984;5.650;2023-02-26T11:24:58;6.50;99.90
44823;DHT22;51097;51.984;5.650;2023-02-26T11:27:29;6.40;99.40
44823;DHT22;51097;51.984;5.650;2023-02-26T11:29:57;6.40;99.70
44823;DHT22;51097;51.984;5.650;2023-02-26T11:32:31;6.60;99.80
44823;DHT22;51097;51.984;5.650;2023-02-26T11:34:57;6.70;99.90
44823;DHT22;51097;51.984;5.650;2023-02-26T11:37:28;6.90;99.90
44823;DHT22;51097;51.984;5.650;2023-02-26T11:42:37;7.30;99.90
44823;DHT22;51097;51.984;5.650;2023-02-26T11:45:07;7.40;98.90
44823;DHT22;51097;51.984;5.650;2023-02-26T11:47:33;7.50;99.90
44823;DHT22;51097;51.984;5.650;2023-02-26T11:50:04;7.60;99.70
44823;DHT22;51097;51.984;5.650;2023-02-26T11:52:40;7.70;99.50
44823;DHT22;51097;51.984;5.650;2023-02-26T11:55:45;8.00;99.90
44823;DHT22;51097;51.984;5.650;2023-02-26T11:58:18;8.10;99.50
44823;DHT22;51097;51.984;5.650;2023-02-26T12:00:44;8.20;99.80
44823;DHT22;51097;51.984;5.650;2023-02-26T12:03:17;8.20;98.20
44823;DHT22;51097;51.984;5.650;2023-02-26T12:05:44;8.20;98.20
44823;DHT22;51097;51.984;5.650;2023-02-26T12:08:22;8.20;99.40
44823;DHT22;51097;51.984;5.650;2023-02-26T12:19:37;8.60;98.90
44823;DHT22;51097;51.984;5.650;2023-02-26T12:22:25;8.80;98.70
44823;DHT22;51097;51.984;5.650;2023-02-26T12:25:21;8.80;98.20
44823;DHT22;51097;51.984;5.650;2023-02-26T12:31:28;8.80;98.30
44823;DHT22;51097;51.984;5.650;2023-02-26T12:34:07;8.80;98.70
44823;DHT22;51097;51.984;5.650;2023-02-26T12:37:06;8.80;95.40
44823;DHT22;51097;51.984;5.650;2023-02-26T12:42:59;8.60;98.10
44823;DHT22;51097;51.984;5.650;2023-02-26T12:50:57;9.00;96.90
44823;DHT22;51097;51.984;5.650;2023-02-26T13:02:12;9.80;97.30
44823;DHT22;51097;51.984;5.650;2023-02-26T13:07:42;9.80;94.60
44823;DHT22;51097;51.984;5.650;2023-02-26T13:10:54;9.70;94.50
44823;DHT22;51097;51.984;5.650;2023-02-26T13:16:21;9.50;96.10
44823;DHT22;51097;51.984;5.650;2023-02-26T13:21:28;9.80;93.40
44823;DHT22;51097;51.984;5.650;2023-02-26T13:24:02;9.90;95.20
44823;DHT22;51097;51.984;5.650;2023-02-26T13:26:31;10.00;95.10
44823;DHT22;51097;51.984;5.650;2023-02-26T13:29:10;10.10;96.30
44823;DHT22;51097;51.984;5.650;2023-02-26T13:31:46;10.40;95.40
44823;DHT22;51097;51.984;5.650;2023-02-26T13:35:15;10.60;96.00
44823;DHT22;51097;51.984;5.650;2023-02-26T13:37:43;10.80;96.10
44823;DHT22;51097;51.984;5.650;2023-02-26T13:42:44;10.70;92.80
44823;DHT22;51097;51.984;5.650;2023-02-26T13:45:44;10.80;95.00
44823;DHT22;51097;51.984;5.650;2023-02-26T13:56:21;11.20;94.50
44823;DHT22;51097;51.984;5.650;2023-02-26T13:58:52;11.40;95.80
44823;DHT22;51097;51.984;5.650;2023-02-26T14:01:33;11.40;93.30
44823;DHT22;51097;51.984;5.650;2023-02-26T14:12:17;11.70;92.70
44823;DHT22;51097;51.984;5.650;2023-02-26T14:20:15;11.70;97.10
44823;DHT22;51097;51.984;5.650;2023-02-26T14:22:41;11.70;94.70
44823;DHT22;51097;51.984;5.650;2023-02-26T14:27:41;11.50;96.40
44823;DHT22;51097;51.984;5.650;2023-02-26T14:35:23;11.60;95.80
44823;DHT22;51097;51.984;5.650;2023-02-26T14:38:06;11.80;95.60
44823;DHT22;51097;51.984;5.650;2023-02-26T14:40:39;11.50;92.90
44823;DHT22;51097;51.984;5.650;2023-02-26T14:43:12;11.30;95.30
44823;DHT22;51097;51.984;5.650;2023-02-26T14:45:41;11.30;95.10
44823;DHT22;51097;51.984;5.650;2023-02-26T14:48:15;11.30;95.80
44823;DHT22;51097;51.984;5.650;2023-02-26T14:50:49;11.10;94.10
44823;DHT22;51097;51.984;5.650;2023-02-26T14:53:37;10.80;96.20
44823;DHT22;51097;51.984;5.650;2023-02-26T15:01:31;11.20;95.60
44823;DHT22;51097;51.984;5.650;2023-02-26T15:09:17;10.90;94.50
44823;DHT22;51097;51.984;5.650;2023-02-26T15:12:01;10.60;93.60
44823;DHT22;51097;51.984;5.650;2023-02-26T15:14:46;10.50;96.10
44823;DHT22;51097;51.984;5.650;2023-02-26T15:25:39;10.40;95.80
44823;DHT22;51097;51.984;5.650;2023-02-26T15:28:10;10.30;94.70
44823;DHT22;51097;51.984;5.650;2023-02-26T15:30:36;10.20;93.60
44823;DHT22;51097;51.984;5.650;2023-02-26T15:33:04;9.90;95.70
44823;DHT22;51097;51.984;5.650;2023-02-26T15:35:32;10.10;95.00
44823;DHT22;51097;51.984;5.650;2023-02-26T15:38:02;10.10;95.30
44823;DHT22;51097;51.984;5.650;2023-02-26T15:40:32;10.00;93.00
44823;DHT22;51097;51.984;5.650;2023-02-26T15:42:59;9.80;94.00
44823;DHT22;51097;51.984;5.650;2023-02-26T15:45:37;9.80;95.20
44823;DHT22;51097;51.984;5.650;2023-02-26T15:48:07;10.00;95.20
44823;DHT22;51097;51.984;5.650;2023-02-26T15:50:40;9.90;94.50
44823;DHT22;51097;51.984;5.650;2023-02-26T15:53:11;9.90;93.60
44823;DHT22;51097;51.984;5.650;2023-02-26T15:55:45;9.80;93.30
44823;DHT22;51097;51.984;5.650;2023-02-26T15:58:21;9.60;94.40
44823;DHT22;51097;51.984;5.650;2023-02-26T16:00:53;9.50;94.70
44823;DHT22;51097;51.984;5.650;2023-02-26T16:03:29;9.60;95.60
44823;DHT22;51097;51.984;5.650;2023-02-26T16:05:57;9.40;95.60
44823;DHT22;51097;51.984;5.650;2023-02-26T16:08:23;9.40;95.20
44823;DHT22;51097;51.984;5.650;2023-02-26T16:10:50;9.40;95.90
44823;DHT22;51097;51.984;5.650;2023-02-26T16:13:30;9.40;95.90
44823;DHT22;51097;51.984;5.650;2023-02-26T16:16:04;9.70;95.00
44823;DHT22;51097;51.984;5.650;2023-02-26T16:18:32;9.70;94.60
44823;DHT22;51097;51.984;5.650;2023-02-26T16:20:59;9.70;95.80
44823;DHT22;51097;51.984;5.650;2023-02-26T16:26:05;9.60;94.70
44823;DHT22;51097;51.984;5.650;2023-02-26T16:28:35;9.40;95.00
44823;DHT22;51097;51.984;5.650;2023-02-26T16:31:03;9.40;95.30
44823;DHT22;51097;51.984;5.650;2023-02-26T16:33:33;9.40;95.30
44823;DHT22;51097;51.984;5.650;2023-02-26T16:36:13;9.40;95.30
44823;DHT22;51097;51.984;5.650;2023-02-26T16:38:46;9.10;94.60
44823;DHT22;51097;51.984;5.650;2023-02-26T16:41:14;9.20;95.90
44823;DHT22;51097;51.984;5.650;2023-02-26T16:43:52;9.10;95.40
44823;DHT22;51097;51.984;5.650;2023-02-26T16:46:25;9.20;96.20
44823;DHT22;51097;51.984;5.650;2023-02-26T16:48:57;9.00;96.10
44823;DHT22;51097;51.984;5.650;2023-02-26T16:51:25;9.00;96.50
44823;DHT22;51097;51.984;5.650;2023-02-26T16:53:59;8.90;96.50
44823;DHT22;51097;51.984;5.650;2023-02-26T16:56:32;8.90;96.80
44823;DHT22;51097;51.984;5.650;2023-02-26T17:02:09;8.70;96.10
44823;DHT22;51097;51.984;5.650;2023-02-26T17:04:38;8.70;97.20
44823;DHT22;51097;51.984;5.650;2023-02-26T17:07:25;8.60;98.10
44823;DHT22;51097;51.984;5.650;2023-02-26T17:09:54;8.60;97.90
44823;DHT22;51097;51.984;5.650;2023-02-26T17:12:23;8.50;97.30
44823;DHT22;51097;51.984;5.650;2023-02-26T17:14:58;8.40;98.20
44823;DHT22;51097;51.984;5.650;2023-02-26T17:17:25;8.50;97.70
44823;DHT22;51097;51.984;5.650;2023-02-26T17:19:51;8.50;98.00
44823;DHT22;51097;51.984;5.650;2023-02-26T17:22:23;8.40;98.20
44823;DHT22;51097;51.984;5.650;2023-02-26T17:24:50;8.30;98.50
44823;DHT22;51097;51.984;5.650;2023-02-26T17:27:34;8.20;98.50
44823;DHT22;51097;51.984;5.650;2023-02-26T17:30:02;8.10;99.00
44823;DHT22;51097;51.984;5.650;2023-02-26T17:32:29;8.10;99.40
44823;DHT22;51097;51.984;5.650;2023-02-26T17:34:56;8.00;99.40
44823;DHT22;51097;51.984;5.650;2023-02-26T17:37:22;8.00;99.20
44823;DHT22;51097;51.984;5.650;2023-02-26T17:39:49;7.90;99.90
44823;DHT22;51097;51.984;5.650;2023-02-26T17:42:17;7.90;99.90
44823;DHT22;51097;51.984;5.650;2023-02-26T17:44:43;7.90;99.90
44823;DHT22;51097;51.984;5.650;2023-02-26T17:47:19;7.70;99.90
44823;DHT22;51097;51.984;5.650;2023-02-26T17:49:45;7.80;99.90
44823;DHT22;51097;51.984;5.650;2023-02-26T17:52:11;7.70;99.90
44823;DHT22;51097;51.984;5.650;2023-02-26T17:54:37;7.60;99.90
44823;DHT22;51097;51.984;5.650;2023-02-26T17:57:03;7.50;99.90
44823;DHT22;51097;51.984;5.650;2023-02-26T17:59:29;7.30;99.90
44823;DHT22;51097;51.984;5.650;2023-02-26T18:01:55;7.20;99.90
44823;DHT22;51097;51.984;5.650;2023-02-26T18:04:20;6.90;99.90
44823;DHT22;51097;51.984;5.650;2023-02-26T18:06:47;6.90;99.90
44823;DHT22;51097;51.984;5.650;2023-02-26T18:09:13;6.80;99.90
44823;DHT22;51097;51.984;5.650;2023-02-26T18:11:40;6.90;99.90
44823;DHT22;51097;51.984;5.650;2023-02-26T18:14:08;6.80;99.90
44823;DHT22;51097;51.984;5.650;2023-02-26T18:16:37;6.70;99.90
44823;DHT22;51097;51.984;5.650;2023-02-26T18:19:04;6.70;99.90
44823;DHT22;51097;51.984;5.650;2023-02-26T18:21:31;6.80;99.90
44823;DHT22;51097;51.984;5.650;2023-02-26T18:23:57;6.60;99.90
44823;DHT22;51097;51.984;5.650;2023-02-26T18:26:28;6.50;99.90
44823;DHT22;51097;51.984;5.650;2023-02-26T18:28:55;6.40;99.90
44823;DHT22;51097;51.984;5.650;2023-02-26T18:31:21;6.50;99.90
44823;DHT22;51097;51.984;5.650;2023-02-26T18:33:47;6.40;99.90
44823;DHT22;51097;51.984;5.650;2023-02-26T18:36:20;6.50;99.90
44823;DHT22;51097;51.984;5.650;2023-02-26T18:38:47;6.50;99.90
44823;DHT22;51097;51.984;5.650;2023-02-26T18:41:12;6.40;99.90
44823;DHT22;51097;51.984;5.650;2023-02-26T18:43:38;6.30;99.90
44823;DHT22;51097;51.984;5.650;2023-02-26T18:46:03;6.20;99.90
44823;DHT22;51097;51.984;5.650;2023-02-26T18:48:29;6.20;99.90
44823;DHT22;51097;51.984;5.650;2023-02-26T18:50:55;6.10;99.90
44823;DHT22;51097;51.984;5.650;2023-02-26T18:53:21;6.20;99.90
44823;DHT22;51097;51.984;5.650;2023-02-26T18:55:49;6.00;99.90
44823;DHT22;51097;51.984;5.650;2023-02-26T18:58:16;5.90;99.90
44823;DHT22;51097;51.984;5.650;2023-02-26T19:00:42;5.90;99.90
44823;DHT22;51097;51.984;5.650;2023-02-26T19:03:08;5.90;99.90
44823;DHT22;51097;51.984;5.650;2023-02-26T19:05:34;5.70;99.90